Time;durP1;ratioP1;P1;durP2;ratioP2;P2;SDS_P1;SDS_P2;PMS_P1;PMS_P2;Temp;Humidity;BMP_temperature;BMP_pressure;BME280_temperature;BME280_humidity;BME280_pressure;Samples;Min_cycle;Max_cycle;Signal;HPM_P1;HPM_P2
2021/11/07 00:03:41;;;;;;;2.33;1.43;;;17.70;61.00;;;;;;10444110;28;20220;-65
2021/11/07 00:09:10;;;;;;;3.70;1.80;;;17.70;61.10;;;;;;10452741;28;20215;-65
2021/11/07 00:14:34;;;;;;;2.47;1.60;;;17.70;60.90;;;;;;10450437;28;20338;-66
2021/11/07 00:20:00;;;;;;;2.37;1.53;;;17.80;60.80;;;;;;10451148;28;20580;-66
2021/11/07 00:25:26;;;;;;;5.70;2.17;;;17.80;61.00;;;;;;10450236;28;20189;-65
2021/11/07 00:30:57;;;;;;;3.30;1.60;;;17.80;61.30;;;;;;10450773;28;20205;-65
2021/11/07 00:36:26;;;;;;;2.37;1.67;;;17.70;61.50;;;;;;10450605;28;20193;-66
2021/11/07 00:41:54;;;;;;;3.87;1.60;;;17.70;61.80;;;;;;10450224;28;20696;-66
2021/11/07 00:47:32;;;;;;;3.00;1.60;;;17.70;62.00;;;;;;10441954;28;20209;-67
2021/11/07 00:52:57;;;;;;;2.90;2.03;;;17.70;62.20;;;;;;10408370;28;20210;-65
2021/11/07 00:58:30;;;;;;;2.07;1.67;;;17.70;62.10;;;;;;10409095;28;20573;-66
2021/11/07 01:03:55;;;;;;;2.20;1.67;;;17.70;62.10;;;;;;10430792;28;20205;-66
2021/11/07 01:09:17;;;;;;;1.93;1.60;;;17.70;62.20;;;;;;10420851;28;20214;-65
2021/11/07 01:14:40;;;;;;;3.43;1.50;;;17.70;62.30;;;;;;10373594;28;1046242;-66
2021/11/07 01:20:05;;;;;;;2.50;1.33;;;17.70;62.40;;;;;;10409692;28;20194;-68
2021/11/07 01:25:30;;;;;;;2.80;1.33;;;17.70;62.60;;;;;;10439841;28;20255;-68
2021/11/07 01:30:55;;;;;;;2.80;1.67;;;17.60;62.50;;;;;;10452829;28;20248;-68
2021/11/07 01:36:28;;;;;;;2.57;1.40;;;17.60;62.50;;;;;;10432520;28;20232;-67
2021/11/07 01:42:04;;;;;;;2.87;1.47;;;17.70;62.30;;;;;;10453120;28;20217;-65
2021/11/07 01:47:27;;;;;;;3.73;1.77;;;17.70;62.20;;;;;;10449164;28;20302;-65
2021/11/07 01:53:02;;;;;;;2.13;1.40;;;17.70;62.40;;;;;;10416838;28;20213;-66
2021/11/07 01:58:25;;;;;;;2.00;1.60;;;17.60;62.40;;;;;;10431297;28;20189;-66
2021/11/07 02:03:48;;;;;;;2.33;1.53;;;17.60;62.50;;;;;;10415805;28;20217;-66
2021/11/07 02:09:11;;;;;;;1.70;1.27;;;17.60;62.70;;;;;;10415024;28;20222;-66
2021/11/07 02:14:34;;;;;;;1.67;1.30;;;17.50;62.70;;;;;;10416171;28;20229;-65
2021/11/07 02:19:58;;;;;;;1.70;1.10;;;17.60;62.60;;;;;;10436990;28;20323;-65
2021/11/07 02:25:21;;;;;;;1.73;1.20;;;17.60;62.40;;;;;;10456361;28;20215;-67
2021/11/07 02:30:43;;;;;;;1.63;1.20;;;17.70;62.40;;;;;;10428038;28;20233;-65
2021/11/07 02:36:08;;;;;;;1.73;1.20;;;17.60;62.40;;;;;;10414751;28;20197;-67
2021/11/07 02:41:31;;;;;;;1.70;1.40;;;17.70;62.60;;;;;;10413866;28;20229;-66
2021/11/07 02:46:54;;;;;;;1.77;0.93;;;17.60;62.70;;;;;;10423787;28;20213;-65
2021/11/07 02:52:17;;;;;;;1.23;1.07;;;17.50;62.80;;;;;;10455033;28;20213;-67
2021/11/07 02:57:41;;;;;;;1.50;0.87;;;17.50;62.80;;;;;;10456012;28;20580;-66
2021/11/07 03:03:03;;;;;;;1.13;1.00;;;17.60;62.80;;;;;;10432498;28;20244;-65
2021/11/07 03:08:25;;;;;;;1.20;1.07;;;17.60;62.70;;;;;;10413392;28;20807;-66
2021/11/07 03:13:49;;;;;;;0.60;0.60;;;17.60;62.70;;;;;;10434546;28;20224;-66
2021/11/07 03:19:11;;;;;;;1.60;0.90;;;17.60;62.80;;;;;;10454752;28;20564;-66
2021/11/07 03:24:33;;;;;;;1.73;0.83;;;17.60;62.90;;;;;;10432929;28;20214;-65
2021/11/07 03:29:58;;;;;;;1.40;0.83;;;17.60;63.10;;;;;;10412442;28;20224;-66
2021/11/07 03:35:21;;;;;;;1.40;1.00;;;17.60;63.30;;;;;;10441983;28;20203;-71
2021/11/07 03:40:44;;;;;;;1.30;0.90;;;17.60;63.40;;;;;;10454063;28;20217;-68
2021/11/07 03:46:08;;;;;;;1.13;0.70;;;17.60;63.30;;;;;;10453701;28;20204;-68
2021/11/07 03:51:30;;;;;;;0.80;0.70;;;17.60;63.20;;;;;;10417329;28;20220;-68
2021/11/07 03:56:53;;;;;;;0.90;0.70;;;17.60;63.20;;;;;;10412167;28;20227;-68
2021/11/07 04:02:17;;;;;;;0.87;0.67;;;17.60;63.30;;;;;;10411766;28;20244;-69
2021/11/07 04:07:39;;;;;;;0.77;0.70;;;17.60;63.40;;;;;;10412499;28;20584;-66
2021/11/07 04:13:05;;;;;;;0.53;0.53;;;17.60;63.50;;;;;;10411453;28;20217;-65
2021/11/07 04:18:28;;;;;;;1.37;0.80;;;17.50;63.60;;;;;;10411795;28;20204;-66
2021/11/07 04:23:50;;;;;;;1.37;0.80;;;17.50;63.70;;;;;;10426258;28;20228;-65
2021/11/07 04:29:13;;;;;;;0.80;0.80;;;17.60;63.50;;;;;;10451466;28;20232;-65
2021/11/07 04:34:36;;;;;;;0.77;0.60;;;17.60;63.40;;;;;;10452411;28;20588;-65
2021/11/07 04:39:58;;;;;;;1.93;0.60;;;17.60;63.40;;;;;;10451149;28;20287;-66
2021/11/07 04:45:21;;;;;;;1.60;0.60;;;17.60;63.50;;;;;;10452161;28;20193;-67
2021/11/07 04:50:46;;;;;;;0.47;0.47;;;17.60;63.60;;;;;;10418995;28;20356;-66
2021/11/07 04:56:09;;;;;;;0.50;0.50;;;17.50;63.70;;;;;;10410326;28;20190;-66
2021/11/07 05:01:31;;;;;;;0.93;0.70;;;17.50;63.80;;;;;;10431283;28;20260;-66
2021/11/07 05:06:54;;;;;;;1.30;0.70;;;17.50;63.80;;;;;;10459489;28;20212;-65
2021/11/07 05:12:16;;;;;;;1.70;0.63;;;17.60;63.80;;;;;;10458247;28;20236;-66
2021/11/07 05:17:39;;;;;;;1.27;0.70;;;17.60;63.80;;;;;;10418228;28;20205;-67
2021/11/07 05:23:02;;;;;;;1.00;0.60;;;17.60;63.70;;;;;;10435176;28;20221;-66
2021/11/07 05:28:25;;;;;;;0.73;0.60;;;17.50;63.70;;;;;;10419976;28;20600;-66
2021/11/07 05:33:48;;;;;;;1.13;0.60;;;17.50;63.80;;;;;;10417754;28;20217;-66
2021/11/07 05:39:12;;;;;;;1.27;0.90;;;17.50;63.80;;;;;;10417248;28;20205;-66
2021/11/07 05:44:34;;;;;;;1.27;0.70;;;17.50;63.70;;;;;;10417576;28;20226;-68
2021/11/07 05:49:56;;;;;;;1.43;0.90;;;17.60;63.50;;;;;;10425207;28;20684;-70
2021/11/07 05:55:20;;;;;;;1.63;0.90;;;17.60;63.40;;;;;;10416751;28;20198;-68
2021/11/07 06:00:43;;;;;;;1.87;0.90;;;17.60;63.40;;;;;;10416052;28;20303;-68
2021/11/07 06:06:05;;;;;;;1.60;0.83;;;17.60;63.50;;;;;;10416700;28;20201;-67
2021/11/07 06:11:29;;;;;;;2.10;1.10;;;17.60;63.50;;;;;;10415348;28;20225;-68
2021/11/07 06:16:51;;;;;;;1.97;0.73;;;17.60;63.50;;;;;;10415971;28;20255;-68
2021/11/07 06:22:13;;;;;;;1.87;0.90;;;17.60;63.30;;;;;;10417599;28;20221;-68
2021/11/07 06:27:36;;;;;;;1.97;1.10;;;17.70;62.90;;;;;;10441422;28;20214;-68
2021/11/07 06:32:59;;;;;;;2.87;1.10;;;17.80;62.80;;;;;;10456170;28;20584;-68
2021/11/07 06:38:21;;;;;;;2.93;1.10;;;17.80;62.80;;;;;;10457054;28;20197;-68
2021/11/07 06:43:44;;;;;;;2.90;1.00;;;17.70;62.30;;;;;;10455494;28;20225;-68
2021/11/07 06:49:09;;;;;;;1.97;0.80;;;17.70;62.10;;;;;;10455882;28;20634;-69
2021/11/07 06:54:32;;;;;;;3.77;1.40;;;17.70;62.20;;;;;;10455616;28;20258;-68
2021/11/07 06:59:55;;;;;;;2.10;1.10;;;17.70;62.30;;;;;;10428803;28;20186;-68
2021/11/07 07:05:20;;;;;;;4.83;1.03;;;17.70;62.40;;;;;;10414211;28;20198;-69
2021/11/07 07:10:50;;;;;;;1.80;1.10;;;17.70;62.50;;;;;;10422699;28;20224;-68
2021/11/07 07:16:25;;;;;;;3.87;1.43;;;17.60;62.70;;;;;;10439278;28;20193;-68
2021/11/07 07:21:57;;;;;;;4.93;1.47;;;17.60;62.80;;;;;;10430904;28;20209;-68
2021/11/07 07:33:25;;;;;;;5.43;1.40;;;17.80;62.40;;;;;;10442820;28;20221;-68
2021/11/07 07:38:47;;;;;;;3.67;1.20;;;17.80;62.20;;;;;;10453185;28;20193;-69
2021/11/07 07:44:09;;;;;;;3.43;1.30;;;17.80;62.00;;;;;;10449994;28;20706;-68
2021/11/07 07:49:32;;;;;;;4.23;1.63;;;17.80;61.50;;;;;;10453220;28;20271;-68
2021/11/07 07:54:56;;;;;;;5.87;1.63;;;17.80;61.30;;;;;;10477995;22;20229;-64
2021/11/07 08:00:20;;;;;;;4.00;1.37;;;17.80;61.30;;;;;;10424938;28;20206;-66
2021/11/07 08:05:44;;;;;;;3.90;1.40;;;17.80;61.20;;;;;;10431062;28;20228;-66
2021/11/07 08:11:06;;;;;;;5.30;1.70;;;17.70;61.40;;;;;;10421134;28;20637;-63
2021/11/07 08:16:29;;;;;;;3.70;1.60;;;17.70;61.50;;;;;;10422790;28;20412;-64
2021/11/07 08:21:53;;;;;;;4.23;1.63;;;17.70;61.70;;;;;;10451378;28;20243;-63
2021/11/07 08:27:16;;;;;;;4.50;1.27;;;17.70;61.90;;;;;;10436399;28;20217;-63
2021/11/07 08:32:38;;;;;;;5.93;1.53;;;17.70;61.90;;;;;;10409085;28;20194;-66
2021/11/07 08:38:05;;;;;;;4.10;1.90;;;17.70;61.90;;;;;;10421952;28;20232;-65
2021/11/07 09:00:29;;;;;;;48.40;23.37;;;18.00;60.40;;;;;;10414734;28;20238;-65
2021/11/07 09:11:35;;;;;;;7.18;2.50;;;18.00;60.30;;;;;;10411537;28;20429;-66
2021/11/07 09:16:57;;;;;;;7.80;2.47;;;18.60;58.40;;;;;;10412441;28;20585;-66
2021/11/07 09:22:27;;;;;;;4.53;1.97;;;18.10;59.80;;;;;;10448270;28;20269;-67
2021/11/07 09:27:54;;;;;;;4.60;1.83;;;17.90;60.50;;;;;;10449994;28;20209;-66
2021/11/07 09:33:24;;;;;;;7.20;1.97;;;17.80;61.00;;;;;;10449930;28;20563;-66
2021/11/07 09:38:49;;;;;;;6.60;1.90;;;17.70;61.20;;;;;;10448439;28;20193;-66
2021/11/07 09:44:14;;;;;;;5.77;1.77;;;17.70;61.50;;;;;;10449482;28;20702;-66
2021/11/07 09:49:46;;;;;;;5.50;1.80;;;17.70;61.60;;;;;;10453218;28;20574;-66
2021/11/07 09:55:08;;;;;;;5.23;1.57;;;17.70;61.60;;;;;;10454614;28;20307;-66
2021/11/07 10:00:39;;;;;;;7.40;1.80;;;17.60;61.50;;;;;;10456636;28;20204;-66
2021/11/07 10:06:02;;;;;;;5.97;1.90;;;17.70;61.20;;;;;;10457074;28;20240;-66
2021/11/07 10:11:30;;;;;;;5.77;1.60;;;17.70;60.70;;;;;;10455500;28;20677;-64
2021/11/07 10:16:55;;;;;;;5.50;2.17;;;17.80;60.50;;;;;;10456073;28;20220;-66
2021/11/07 10:22:22;;;;;;;10.70;2.40;;;17.80;60.30;;;;;;10432266;28;20201;-66
2021/11/07 10:27:48;;;;;;;5.97;1.97;;;17.90;60.20;;;;;;10413927;28;20299;-65
2021/11/07 10:33:19;;;;;;;6.27;1.67;;;17.80;60.10;;;;;;10413211;28;20205;-65
2021/11/07 10:39:04;;;;;;;7.03;2.20;;;17.80;60.20;;;;;;10413202;28;20220;-65
2021/11/07 10:44:34;;;;;;;8.67;2.20;;;17.70;60.30;;;;;;10413054;28;20225;-67
2021/11/07 10:55:42;;;;;;;7.70;2.00;;;17.70;60.60;;;;;;10413183;28;20282;-64
2021/11/07 11:01:07;;;;;;;5.43;2.07;;;17.70;60.70;;;;;;10415738;28;21206;-65
2021/11/07 11:06:30;;;;;;;6.00;1.73;;;17.60;60.60;;;;;;10412620;28;20218;-65
2021/11/07 11:12:08;;;;;;;6.50;1.97;;;17.60;60.60;;;;;;10418572;28;20222;-66
2021/11/07 11:17:42;;;;;;;7.60;1.90;;;17.70;60.30;;;;;;10410597;28;20778;-65
2021/11/07 11:23:11;;;;;;;7.23;2.00;;;17.80;60.10;;;;;;10411863;28;20194;-67
2021/11/07 11:28:39;;;;;;;5.87;1.90;;;17.80;59.90;;;;;;10410947;28;20209;-65
2021/11/07 11:34:02;;;;;;;10.00;2.50;;;17.80;59.70;;;;;;10433029;28;20613;-66
2021/11/07 11:39:30;;;;;;;10.03;2.67;;;17.80;59.50;;;;;;10451377;28;20208;-65
2021/11/07 11:44:55;;;;;;;6.37;2.13;;;17.80;59.50;;;;;;10410340;28;20221;-65
2021/11/07 11:50:28;;;;;;;7.67;2.50;;;17.80;59.40;;;;;;10410582;28;20214;-65
2021/11/07 11:55:56;;;;;;;6.13;1.67;;;17.80;59.50;;;;;;10409528;28;20218;-67
2021/11/07 12:01:21;;;;;;;5.43;2.10;;;17.70;59.50;;;;;;10410616;28;20201;-66
2021/11/07 12:06:48;;;;;;;7.63;2.63;;;17.70;59.50;;;;;;10410964;28;20217;-67
2021/11/07 12:12:15;;;;;;;6.87;1.90;;;17.70;59.50;;;;;;10409690;28;20218;-66
2021/11/07 12:17:40;;;;;;;5.63;1.80;;;17.60;59.50;;;;;;10415402;28;20258;-66
2021/11/07 12:23:21;;;;;;;6.10;2.30;;;17.70;59.40;;;;;;10408395;28;20205;-65
2021/11/07 12:28:48;;;;;;;7.23;2.40;;;17.80;59.10;;;;;;10407384;28;20218;-65
2021/11/07 12:34:16;;;;;;;8.40;2.57;;;17.80;58.90;;;;;;10408570;28;20221;-66
2021/11/07 12:45:31;;;;;;;7.33;1.67;;;17.80;58.30;;;;;;10450160;28;20288;-66
2021/11/07 12:51:00;;;;;;;8.90;2.20;;;17.90;58.10;;;;;;10444481;28;20563;-67
2021/11/07 12:56:41;;;;;;;12.33;2.50;;;17.80;57.70;;;;;;10413785;28;20221;-66
2021/11/07 13:02:22;;;;;;;7.10;1.80;;;17.70;57.50;;;;;;10429254;28;20193;-65
2021/11/07 13:07:49;;;;;;;7.30;1.93;;;17.70;57.50;;;;;;10448079;28;20217;-64
2021/11/07 13:13:20;;;;;;;7.70;2.07;;;17.70;58.00;;;;;;10415770;28;20663;-64
2021/11/07 13:18:54;;;;;;;5.00;1.93;;;17.70;58.20;;;;;;10422855;28;20310;-67
2021/11/07 13:24:29;;;;;;;8.50;2.03;;;17.70;58.20;;;;;;10433686;28;20225;-64
2021/11/07 13:29:53;;;;;;;7.03;2.30;;;17.70;58.20;;;;;;10424191;28;20677;-63
2021/11/07 13:35:20;;;;;;;6.67;2.10;;;17.70;58.20;;;;;;10449504;28;20332;-65
2021/11/07 13:40:42;;;;;;;6.27;1.63;;;17.70;58.10;;;;;;10430096;28;20201;-65
2021/11/07 13:46:06;;;;;;;8.73;2.20;;;17.70;57.60;;;;;;10429110;28;20214;-64
2021/11/07 13:51:29;;;;;;;9.30;2.10;;;17.70;57.20;;;;;;10430647;28;20217;-64
2021/11/07 13:56:53;;;;;;;5.27;2.03;;;17.80;57.20;;;;;;10427050;28;20229;-66
2021/11/07 14:02:17;;;;;;;7.67;2.07;;;17.80;57.20;;;;;;10434694;28;20193;-66
2021/11/07 14:07:41;;;;;;;8.57;2.27;;;17.80;57.30;;;;;;10430024;28;20212;-65
2021/11/07 14:13:08;;;;;;;7.77;2.07;;;17.80;57.30;;;;;;10428344;28;20228;-65
2021/11/07 14:18:30;;;;;;;7.90;1.77;;;17.80;57.50;;;;;;10420018;28;20762;-65
2021/11/07 14:24:04;;;;;;;8.07;2.27;;;17.80;57.60;;;;;;10425823;28;20197;-66
2021/11/07 14:29:32;;;;;;;5.30;2.17;;;17.70;57.30;;;;;;10480129;22;20316;-67
2021/11/07 14:35:01;;;;;;;7.73;2.20;;;17.70;57.30;;;;;;10451184;28;20687;-67
2021/11/07 14:40:31;;;;;;;6.03;2.30;;;17.80;57.10;;;;;;10421906;28;20581;-68
2021/11/07 14:46:03;;;;;;;4.80;1.77;;;17.80;57.10;;;;;;10416205;28;20225;-67
2021/11/07 14:51:38;;;;;;;4.97;2.30;;;17.80;57.30;;;;;;10445416;28;20213;-67
2021/11/07 14:57:16;;;;;;;7.37;2.60;;;17.80;57.50;;;;;;10442640;28;20221;-67
2021/11/07 15:02:45;;;;;;;5.93;2.17;;;17.80;57.60;;;;;;10446598;28;20196;-68
2021/11/07 15:08:12;;;;;;;7.57;2.57;;;17.80;58.00;;;;;;10454820;28;20719;-67
2021/11/07 15:13:44;;;;;;;5.93;2.07;;;17.80;58.00;;;;;;10432601;28;20569;-67
2021/11/07 15:19:11;;;;;;;4.83;2.07;;;17.80;58.20;;;;;;10443342;28;20220;-67
2021/11/07 15:24:38;;;;;;;5.87;1.87;;;17.70;58.30;;;;;;10431867;28;20201;-67
2021/11/07 15:30:04;;;;;;;5.90;1.77;;;17.70;58.40;;;;;;10415286;28;20213;-67
2021/11/07 15:35:29;;;;;;;7.00;2.30;;;17.70;58.20;;;;;;10413063;28;20213;-67
2021/11/07 15:40:55;;;;;;;4.63;1.80;;;17.70;58.30;;;;;;10412599;28;20240;-67
2021/11/07 15:46:18;;;;;;;7.33;2.30;;;17.60;58.20;;;;;;10411456;28;20716;-67
2021/11/07 15:51:46;;;;;;;6.70;2.10;;;17.60;58.00;;;;;;10440188;28;20217;-67
2021/11/07 15:57:16;;;;;;;3.07;1.87;;;17.60;58.10;;;;;;10448382;28;20210;-68
2021/11/07 16:02:45;;;;;;;5.87;2.70;;;17.60;58.20;;;;;;10408496;28;20201;-67
2021/11/07 16:08:18;;;;;;;5.90;2.20;;;17.70;58.50;;;;;;10411616;28;20683;-67
2021/11/07 16:13:59;;;;;;;7.20;2.40;;;17.70;58.40;;;;;;10419509;28;20681;-67
2021/11/07 16:19:25;;;;;;;8.77;2.77;;;17.60;58.50;;;;;;10410882;28;20728;-67
2021/11/07 16:24:49;;;;;;;6.50;2.83;;;17.60;58.60;;;;;;10419634;28;20261;-67
2021/11/07 16:30:15;;;;;;;6.20;2.20;;;17.60;58.60;;;;;;10408024;28;20235;-68
2021/11/07 16:35:42;;;;;;;7.53;2.07;;;17.70;58.50;;;;;;10427951;28;20217;-67
2021/11/07 16:41:09;;;;;;;5.63;2.30;;;17.70;58.60;;;;;;10452470;28;20198;-67
2021/11/07 16:46:33;;;;;;;5.03;2.30;;;17.60;58.40;;;;;;10450311;28;20228;-67
2021/11/07 16:52:00;;;;;;;4.97;2.20;;;17.70;58.30;;;;;;10441338;28;20213;-67
2021/11/07 16:57:26;;;;;;;6.30;2.70;;;17.70;58.20;;;;;;10454870;28;20219;-67
2021/11/07 17:02:51;;;;;;;6.30;2.43;;;17.70;58.30;;;;;;10459778;28;20195;-67
2021/11/07 17:08:19;;;;;;;6.80;2.33;;;17.70;58.40;;;;;;10459958;28;20223;-67
2021/11/07 17:13:41;;;;;;;7.17;3.07;;;17.70;58.50;;;;;;10426626;28;20214;-67
2021/11/07 17:19:03;;;;;;;13.03;4.77;;;17.70;58.50;;;;;;10417821;28;20221;-67
2021/11/07 17:24:35;;;;;;;8.57;3.53;;;17.70;58.50;;;;;;10432013;28;20691;-67
2021/11/07 17:30:05;;;;;;;9.13;3.53;;;17.70;58.40;;;;;;10417439;28;20230;-67
2021/11/07 17:35:31;;;;;;;9.87;3.33;;;17.60;58.60;;;;;;10422789;28;20288;-67
2021/11/07 17:57:55;;;;;;;7.53;3.47;;;17.60;58.80;;;;;;10458525;28;20209;-67
2021/11/07 18:03:17;;;;;;;7.70;2.60;;;17.60;58.90;;;;;;10456870;28;20656;-67
2021/11/07 18:08:41;;;;;;;8.57;3.37;;;17.60;58.90;;;;;;10457356;28;20592;-67
2021/11/07 18:14:06;;;;;;;9.53;4.20;;;17.60;59.20;;;;;;10456937;28;20579;-67
2021/11/07 18:19:28;;;;;;;6.97;3.00;;;17.60;59.30;;;;;;10456084;28;20193;-67
2021/11/07 18:24:56;;;;;;;8.20;3.10;;;17.60;59.40;;;;;;10455411;28;20715;-66
2021/11/07 18:30:23;;;;;;;6.70;2.80;;;17.60;59.30;;;;;;10447775;28;20201;-67
2021/11/07 18:35:46;;;;;;;6.73;2.67;;;17.60;59.20;;;;;;10456481;28;20315;-67
2021/11/07 18:41:08;;;;;;;7.30;2.93;;;17.60;59.40;;;;;;10428080;28;20197;-67
2021/11/07 18:46:31;;;;;;;8.80;2.30;;;17.50;59.30;;;;;;10446985;28;20212;-68
2021/11/07 18:51:54;;;;;;;5.63;2.40;;;17.60;59.20;;;;;;10454917;28;20240;-67
2021/11/07 18:57:19;;;;;;;4.87;2.27;;;17.60;59.10;;;;;;10455324;28;20213;-67
2021/11/07 19:02:42;;;;;;;8.30;2.40;;;17.60;59.10;;;;;;10455861;28;20250;-68
2021/11/07 19:08:05;;;;;;;4.47;2.17;;;17.50;59.00;;;;;;10451362;28;20288;-67
2021/11/07 19:13:27;;;;;;;5.47;2.10;;;17.60;59.40;;;;;;10440470;28;20627;-68
2021/11/07 19:18:51;;;;;;;5.47;2.13;;;17.60;59.80;;;;;;10419117;28;20209;-67
2021/11/07 19:24:13;;;;;;;8.93;2.37;;;17.50;59.90;;;;;;10433925;28;20193;-67
2021/11/07 19:29:40;;;;;;;6.47;2.30;;;17.60;60.10;;;;;;10412503;28;20218;-67
2021/11/07 19:35:05;;;;;;;5.33;2.30;;;17.60;60.50;;;;;;10413464;28;20217;-68
2021/11/07 19:40:31;;;;;;;5.47;2.40;;;17.60;60.30;;;;;;10457285;28;20595;-68
2021/11/07 19:45:57;;;;;;;6.37;2.20;;;17.60;60.30;;;;;;10459105;28;20220;-68
2021/11/07 19:51:20;;;;;;;6.50;2.70;;;17.60;60.00;;;;;;10445582;28;20647;-67
2021/11/07 19:56:43;;;;;;;5.50;2.90;;;17.60;60.10;;;;;;10450133;28;20227;-67
2021/11/07 20:02:25;;;;;;;7.33;2.27;;;17.70;59.90;;;;;;10432039;28;20234;-67
2021/11/07 20:08:27;;;;;;;5.07;2.47;;;17.60;60.00;;;;;;10447548;28;20224;-67
2021/11/07 20:13:54;;;;;;;7.23;2.80;;;17.60;60.10;;;;;;10436140;28;20205;-66
2021/11/07 20:19:17;;;;;;;4.07;2.03;;;17.50;60.10;;;;;;10443016;28;20224;-67
2021/11/07 20:24:41;;;;;;;6.47;2.40;;;17.60;60.00;;;;;;10415579;28;20198;-67
2021/11/07 20:30:04;;;;;;;8.20;2.30;;;17.60;60.10;;;;;;10488537;22;20235;-64
2021/11/07 20:35:31;;;;;;;7.13;2.30;;;17.50;60.10;;;;;;10472662;28;20224;-63
2021/11/07 20:40:56;;;;;;;6.43;2.20;;;17.60;59.80;;;;;;10436729;28;20200;-64
2021/11/07 20:52:02;;;;;;;4.57;2.03;;;17.70;58.90;;;;;;10429962;28;20279;-64
2021/11/07 20:57:33;;;;;;;4.60;2.10;;;17.70;59.00;;;;;;10432237;28;20294;-63
2021/11/07 21:02:58;;;;;;;4.73;1.70;;;17.70;58.90;;;;;;10427678;28;20186;-62
2021/11/07 21:08:31;;;;;;;4.93;1.90;;;17.70;59.00;;;;;;10433550;28;20291;-64
2021/11/07 21:13:59;;;;;;;4.53;1.90;;;17.70;59.20;;;;;;10425774;28;20559;-61
2021/11/07 21:30:43;;;;;;;3.90;1.47;;;17.60;59.70;;;;;;10425836;28;20216;-64
2021/11/07 21:36:16;;;;;;;7.70;1.97;;;17.60;59.90;;;;;;10427379;28;20687;-63
2021/11/07 21:41:44;;;;;;;5.33;1.97;;;17.60;59.80;;;;;;10425907;28;20280;-65
2021/11/07 21:47:10;;;;;;;4.43;1.70;;;17.60;59.80;;;;;;10434446;28;20210;-63
2021/11/07 21:52:32;;;;;;;4.27;1.50;;;17.60;59.90;;;;;;10441537;28;20648;-64
2021/11/07 21:57:54;;;;;;;4.50;1.87;;;17.60;59.90;;;;;;10435085;28;20695;-63
2021/11/07 22:03:18;;;;;;;5.30;1.70;;;17.60;60.00;;;;;;10433574;28;20193;-63
2021/11/07 22:08:40;;;;;;;5.57;1.50;;;17.50;59.80;;;;;;10434171;28;20706;-62
2021/11/07 22:14:05;;;;;;;5.00;1.47;;;17.50;59.90;;;;;;10432434;28;20241;-63
2021/11/07 22:19:29;;;;;;;5.57;1.77;;;17.50;60.00;;;;;;10432735;28;20193;-63
2021/11/07 22:24:55;;;;;;;7.67;1.73;;;17.50;60.10;;;;;;10433754;28;20208;-63
2021/11/07 22:30:19;;;;;;;3.27;1.30;;;17.50;60.20;;;;;;10433867;28;20640;-63
2021/11/07 22:35:45;;;;;;;7.77;1.77;;;17.50;60.20;;;;;;10433181;28;20216;-65
2021/11/07 22:41:08;;;;;;;4.83;1.83;;;17.50;60.20;;;;;;10414305;28;20319;-63
2021/11/07 22:46:31;;;;;;;3.67;1.70;;;17.50;59.80;;;;;;10433200;28;20213;-63
2021/11/07 22:52:02;;;;;;;4.57;1.50;;;17.60;59.60;;;;;;10444422;28;20219;-63
2021/11/07 22:57:32;;;;;;;3.60;1.57;;;17.60;59.70;;;;;;10453277;28;20733;-63
2021/11/07 23:03:13;;;;;;;4.97;1.77;;;17.50;59.80;;;;;;10452405;28;20190;-63
2021/11/07 23:09:01;;;;;;;5.60;2.07;;;17.50;59.90;;;;;;10412913;28;20217;-63
2021/11/07 23:14:27;;;;;;;3.73;1.67;;;17.60;60.00;;;;;;10424722;28;20294;-63
2021/11/07 23:19:54;;;;;;;6.07;1.70;;;17.60;60.10;;;;;;10416447;28;20192;-64
2021/11/07 23:25:20;;;;;;;5.00;1.63;;;17.50;60.10;;;;;;10453470;28;20216;-63
2021/11/07 23:30:46;;;;;;;2.97;1.30;;;17.50;60.10;;;;;;10452971;28;20729;-63
2021/11/07 23:36:13;;;;;;;4.73;1.57;;;17.50;60.20;;;;;;10427479;28;20216;-62
2021/11/07 23:41:35;;;;;;;4.37;1.73;;;17.50;60.20;;;;;;10452215;28;20193;-64
2021/11/07 23:46:59;;;;;;;3.93;1.60;;;17.50;60.20;;;;;;10451467;28;20217;-64
2021/11/07 23:58:07;;;;;;;5.07;1.40;;;17.50;60.30;;;;;;10444574;28;20287;-65
